Ouaquaga, NY (13826)

05:09 AM EDT die 29o March, anno 2017 (GMT -0400)
Overlook Gardens | | Change Station

Elev 1293 ft 42.09 °N, 75.80 °W | Updated 0 second ago

Aequaliter Nubila
Aequaliter Nubila
36.1 °F
Feels Like 36 °F
N
2.2
Ventus Variabilis Ventus from Magis Aquilo quam Zephyrus

Hodie
High -- | Low -- °F
--% Chance of Precip.
Yesterday
High -- | Low -- °F
Precip. -- in
Pressio 30.11 in
Visibilitas 10.0 milia passuum
Clouds Aequaliter Nubila 1800 ft
Frigus Venti 36 °F
Frigus in quo Ros apparet 31 °F
Umor 83%
Rainfall 0.00 in
Snow Depth Not available.
6:49 AM 7:25 PM
New, 2% visible
METAR KBGM 290853Z AUTO 36012G21KT 10SM OVC018 02/M02 A3007 RMK AO2 SLP194 T00171017 53010
Pressio 30.11 in
Visibilitas 10.0 milia passuum
Clouds Aequaliter Nubila 1800 ft
Frigus Venti 36 °F
Frigus in quo Ros apparet 31 °F
Umor 83%
Rainfall 0.00 in
Snow Depth Not available.
6:49 AM 7:25 PM
New, 2% visible
METAR KBGM 290853Z AUTO 36012G21KT 10SM OVC018 02/M02 A3007 RMK AO2 SLP194 T00171017 53010

Get Severe Weather Alerts

Thanks for signing up!

Be on the lookout for a verification email in your inbox.

You'll start receiving the daily forecast at 8 AM.

×

10-Day Weather Forecast

Almanac

Astronomy

Mar. 29, 2017 Rise Set
Actual Time
Civil Twilight
Nautical Twilight
Astronomical Twilight
Moon
Length Of Visible Light
Length of Day
Tomorrow will be .
, % of the Moon is Illuminated

Today's Extremes

State Highs State Lows

Community

WunderPhotos

Upload Photos

1,962,540 photos uploaded!

WunderBlog® & News

Nearby

Air Quality

  Air Quality AQ Index Pollutant
Not available.

Snow Depth

Station Depth Elevation

Earthquake Activity

City Distance Mag. Time & Date
Minimum magnitude displayed is 2.5.

Earthquake Activity

City Distance Mag. Time & Date
Minimum magnitude displayed is 2.5.

Coastal Water Temperatures

Locus Calor

Stations

Nearby Weather Stations

Station Location Temp Frigus Venti Frigus in quo Ros apparet Umor Ventus Precip. Elev Renovata Type
                   

Watches & Warnings

There are currently no watches in effect.